sensor_id;sensor_type;location;lat;lon;timestamp;P1;durP1;ratioP1;P2;durP2;ratioP2
53688;SDS011;39583;54.682;30.662;2023-03-19T07:06:15;3.72;;;1.70;;
53688;SDS011;39583;54.682;30.662;2023-03-19T07:08:42;3.08;;;1.95;;
53688;SDS011;39583;54.682;30.662;2023-03-19T07:11:10;2.90;;;1.83;;
53688;SDS011;39583;54.682;30.662;2023-03-19T07:13:37;3.15;;;1.67;;
53688;SDS011;39583;54.682;30.662;2023-03-19T07:16:03;3.53;;;1.77;;
53688;SDS011;39583;54.682;30.662;2023-03-19T07:18:29;2.25;;;1.48;;
53688;SDS011;39583;54.682;30.662;2023-03-19T07:20:55;6.18;;;1.77;;
53688;SDS011;39583;54.682;30.662;2023-03-19T07:23:22;3.75;;;1.65;;
53688;SDS011;39583;54.682;30.662;2023-03-19T07:25:47;2.58;;;1.40;;
53688;SDS011;39583;54.682;30.662;2023-03-19T07:28:14;2.55;;;1.92;;
53688;SDS011;39583;54.682;30.662;2023-03-19T07:30:40;3.80;;;2.05;;
53688;SDS011;39583;54.682;30.662;2023-03-19T07:33:06;3.55;;;1.60;;
53688;SDS011;39583;54.682;30.662;2023-03-19T07:35:33;3.33;;;2.33;;
53688;SDS011;39583;54.682;30.662;2023-03-19T07:37:59;3.22;;;1.58;;
53688;SDS011;39583;54.682;30.662;2023-03-19T07:40:27;3.90;;;1.77;;
53688;SDS011;39583;54.682;30.662;2023-03-19T07:42:53;3.30;;;1.80;;
53688;SDS011;39583;54.682;30.662;2023-03-19T07:45:19;4.90;;;2.15;;
53688;SDS011;39583;54.682;30.662;2023-03-19T07:47:44;3.83;;;2.22;;
53688;SDS011;39583;54.682;30.662;2023-03-19T07:50:11;4.95;;;1.73;;
53688;SDS011;39583;54.682;30.662;2023-03-19T07:52:37;3.05;;;1.95;;
53688;SDS011;39583;54.682;30.662;2023-03-19T07:55:03;3.75;;;2.20;;
53688;SDS011;39583;54.682;30.662;2023-03-19T07:57:30;5.53;;;2.20;;
53688;SDS011;39583;54.682;30.662;2023-03-19T07:59:57;2.95;;;2.03;;
53688;SDS011;39583;54.682;30.662;2023-03-19T08:02:23;3.75;;;1.70;;
53688;SDS011;39583;54.682;30.662;2023-03-19T08:04:49;3.33;;;1.85;;
53688;SDS011;39583;54.682;30.662;2023-03-19T08:07:15;2.70;;;1.80;;
53688;SDS011;39583;54.682;30.662;2023-03-19T08:09:41;5.03;;;2.60;;
53688;SDS011;39583;54.682;30.662;2023-03-19T08:12:07;7.38;;;1.92;;
53688;SDS011;39583;54.682;30.662;2023-03-19T08:14:33;5.00;;;1.90;;
53688;SDS011;39583;54.682;30.662;2023-03-19T08:17:00;3.97;;;2.15;;
53688;SDS011;39583;54.682;30.662;2023-03-19T08:19:26;3.13;;;1.80;;
53688;SDS011;39583;54.682;30.662;2023-03-19T08:21:52;4.75;;;1.80;;
53688;SDS011;39583;54.682;30.662;2023-03-19T08:24:18;3.30;;;1.70;;
53688;SDS011;39583;54.682;30.662;2023-03-19T08:26:44;3.75;;;1.85;;
53688;SDS011;39583;54.682;30.662;2023-03-19T08:29:10;5.28;;;1.95;;
53688;SDS011;39583;54.682;30.662;2023-03-19T08:31:36;6.90;;;2.47;;
53688;SDS011;39583;54.682;30.662;2023-03-19T08:34:02;4.65;;;2.13;;
53688;SDS011;39583;54.682;30.662;2023-03-19T08:36:29;5.03;;;2.15;;
53688;SDS011;39583;54.682;30.662;2023-03-19T08:38:56;4.78;;;2.05;;
53688;SDS011;39583;54.682;30.662;2023-03-19T08:41:23;4.90;;;2.65;;
53688;SDS011;39583;54.682;30.662;2023-03-19T08:43:49;3.10;;;2.10;;
53688;SDS011;39583;54.682;30.662;2023-03-19T08:46:16;5.22;;;1.95;;
53688;SDS011;39583;54.682;30.662;2023-03-19T08:48:42;3.75;;;1.70;;
53688;SDS011;39583;54.682;30.662;2023-03-19T08:51:08;3.20;;;1.80;;
53688;SDS011;39583;54.682;30.662;2023-03-19T08:53:35;4.25;;;1.95;;
53688;SDS011;39583;54.682;30.662;2023-03-19T08:56:02;3.55;;;2.00;;
53688;SDS011;39583;54.682;30.662;2023-03-19T08:58:29;3.67;;;2.00;;
53688;SDS011;39583;54.682;30.662;2023-03-19T09:01:09;4.00;;;2.35;;
53688;SDS011;39583;54.682;30.662;2023-03-19T09:03:37;4.30;;;2.35;;
53688;SDS011;39583;54.682;30.662;2023-03-19T09:06:04;5.85;;;2.50;;
53688;SDS011;39583;54.682;30.662;2023-03-19T09:08:32;4.80;;;1.98;;
53688;SDS011;39583;54.682;30.662;2023-03-19T09:10:59;4.53;;;1.92;;
53688;SDS011;39583;54.682;30.662;2023-03-19T09:13:25;4.85;;;2.33;;
53688;SDS011;39583;54.682;30.662;2023-03-19T09:15:52;5.53;;;2.35;;
53688;SDS011;39583;54.682;30.662;2023-03-19T09:18:18;4.63;;;2.03;;
53688;SDS011;39583;54.682;30.662;2023-03-19T09:20:53;4.70;;;2.38;;
53688;SDS011;39583;54.682;30.662;2023-03-19T09:23:22;5.35;;;2.38;;
53688;SDS011;39583;54.682;30.662;2023-03-19T09:25:49;3.72;;;2.00;;
53688;SDS011;39583;54.682;30.662;2023-03-19T09:28:15;3.53;;;1.90;;
53688;SDS011;39583;54.682;30.662;2023-03-19T09:30:41;4.20;;;1.95;;
53688;SDS011;39583;54.682;30.662;2023-03-19T09:33:07;4.25;;;1.88;;
53688;SDS011;39583;54.682;30.662;2023-03-19T09:35:33;3.00;;;1.73;;
53688;SDS011;39583;54.682;30.662;2023-03-19T09:38:00;4.75;;;2.00;;
53688;SDS011;39583;54.682;30.662;2023-03-19T09:40:28;4.65;;;2.08;;
53688;SDS011;39583;54.682;30.662;2023-03-19T09:45:54;4.03;;;2.10;;
53688;SDS011;39583;54.682;30.662;2023-03-19T09:48:29;6.43;;;1.92;;
53688;SDS011;39583;54.682;30.662;2023-03-19T09:51:02;2.95;;;1.77;;
53688;SDS011;39583;54.682;30.662;2023-03-19T09:55:59;3.95;;;2.13;;
53688;SDS011;39583;54.682;30.662;2023-03-19T09:58:31;3.95;;;1.98;;
53688;SDS011;39583;54.682;30.662;2023-03-19T10:00:59;3.45;;;2.20;;
53688;SDS011;39583;54.682;30.662;2023-03-19T10:14:06;3.58;;;1.85;;
53688;SDS011;39583;54.682;30.662;2023-03-19T10:16:34;5.30;;;2.60;;
53688;SDS011;39583;54.682;30.662;2023-03-19T10:19:04;7.53;;;1.95;;
53688;SDS011;39583;54.682;30.662;2023-03-19T10:21:36;3.63;;;2.28;;
53688;SDS011;39583;54.682;30.662;2023-03-19T10:27:00;5.63;;;2.17;;
53688;SDS011;39583;54.682;30.662;2023-03-19T10:29:34;3.58;;;1.92;;
53688;SDS011;39583;54.682;30.662;2023-03-19T10:34:50;5.63;;;2.33;;
53688;SDS011;39583;54.682;30.662;2023-03-19T10:37:20;3.72;;;2.33;;
53688;SDS011;39583;54.682;30.662;2023-03-19T10:39:49;5.15;;;2.22;;
53688;SDS011;39583;54.682;30.662;2023-03-19T10:45:24;8.63;;;2.53;;
53688;SDS011;39583;54.682;30.662;2023-03-19T10:47:54;5.88;;;2.67;;
53688;SDS011;39583;54.682;30.662;2023-03-19T10:50:22;5.78;;;2.60;;
53688;SDS011;39583;54.682;30.662;2023-03-19T10:53:00;3.67;;;1.95;;
53688;SDS011;39583;54.682;30.662;2023-03-19T10:55:29;7.30;;;2.60;;
53688;SDS011;39583;54.682;30.662;2023-03-19T10:58:00;3.90;;;2.13;;
53688;SDS011;39583;54.682;30.662;2023-03-19T11:00:57;4.78;;;2.08;;
53688;SDS011;39583;54.682;30.662;2023-03-19T11:03:32;9.20;;;2.35;;
53688;SDS011;39583;54.682;30.662;2023-03-19T11:08:51;3.85;;;2.13;;
53688;SDS011;39583;54.682;30.662;2023-03-19T11:11:25;3.42;;;2.05;;
53688;SDS011;39583;54.682;30.662;2023-03-19T11:14:04;3.33;;;1.98;;
53688;SDS011;39583;54.682;30.662;2023-03-19T11:16:32;5.15;;;2.50;;
53688;SDS011;39583;54.682;30.662;2023-03-19T11:19:20;4.35;;;2.25;;
53688;SDS011;39583;54.682;30.662;2023-03-19T11:21:52;4.82;;;2.00;;
53688;SDS011;39583;54.682;30.662;2023-03-19T11:24:39;4.03;;;2.28;;
53688;SDS011;39583;54.682;30.662;2023-03-19T11:27:07;4.45;;;2.45;;
53688;SDS011;39583;54.682;30.662;2023-03-19T11:29:36;2.67;;;1.92;;
53688;SDS011;39583;54.682;30.662;2023-03-19T11:37:10;5.95;;;2.55;;
53688;SDS011;39583;54.682;30.662;2023-03-19T11:50:58;4.07;;;2.55;;
53688;SDS011;39583;54.682;30.662;2023-03-19T12:07:06;5.25;;;2.70;;
53688;SDS011;39583;54.682;30.662;2023-03-19T12:17:45;3.97;;;2.30;;
53688;SDS011;39583;54.682;30.662;2023-03-19T12:23:31;4.85;;;2.38;;
53688;SDS011;39583;54.682;30.662;2023-03-19T12:26:31;5.78;;;2.72;;
53688;SDS011;39583;54.682;30.662;2023-03-19T12:29:03;4.78;;;2.38;;
53688;SDS011;39583;54.682;30.662;2023-03-19T12:35:00;4.85;;;2.45;;
53688;SDS011;39583;54.682;30.662;2023-03-19T12:37:30;4.38;;;2.28;;
53688;SDS011;39583;54.682;30.662;2023-03-19T12:42:33;7.00;;;2.63;;
53688;SDS011;39583;54.682;30.662;2023-03-19T12:45:11;6.88;;;3.17;;
53688;SDS011;39583;54.682;30.662;2023-03-19T12:47:47;7.97;;;3.38;;
53688;SDS011;39583;54.682;30.662;2023-03-19T12:50:15;6.40;;;2.75;;
53688;SDS011;39583;54.682;30.662;2023-03-19T12:52:50;6.95;;;3.40;;
53688;SDS011;39583;54.682;30.662;2023-03-19T12:55:34;4.47;;;2.85;;
53688;SDS011;39583;54.682;30.662;2023-03-19T13:00:57;4.53;;;2.50;;
53688;SDS011;39583;54.682;30.662;2023-03-19T13:03:31;3.58;;;2.45;;
53688;SDS011;39583;54.682;30.662;2023-03-19T13:06:07;5.57;;;2.80;;
53688;SDS011;39583;54.682;30.662;2023-03-19T13:11:32;3.53;;;2.38;;
53688;SDS011;39583;54.682;30.662;2023-03-19T13:16:54;6.15;;;2.83;;
53688;SDS011;39583;54.682;30.662;2023-03-19T13:22:03;4.85;;;2.20;;
53688;SDS011;39583;54.682;30.662;2023-03-19T13:24:37;6.40;;;2.70;;
53688;SDS011;39583;54.682;30.662;2023-03-19T13:27:06;4.47;;;3.40;;
53688;SDS011;39583;54.682;30.662;2023-03-19T13:29:38;4.53;;;2.70;;
53688;SDS011;39583;54.682;30.662;2023-03-19T13:37:42;4.75;;;2.33;;
53688;SDS011;39583;54.682;30.662;2023-03-19T13:43:04;4.00;;;2.50;;
53688;SDS011;39583;54.682;30.662;2023-03-19T13:45:49;4.78;;;2.08;;
53688;SDS011;39583;54.682;30.662;2023-03-19T13:50:53;8.35;;;2.42;;
53688;SDS011;39583;54.682;30.662;2023-03-19T13:53:21;3.40;;;2.08;;
53688;SDS011;39583;54.682;30.662;2023-03-19T13:55:58;4.65;;;2.03;;
53688;SDS011;39583;54.682;30.662;2023-03-19T13:58:51;4.22;;;2.15;;
53688;SDS011;39583;54.682;30.662;2023-03-19T14:01:39;3.78;;;1.65;;
53688;SDS011;39583;54.682;30.662;2023-03-19T14:09:42;2.40;;;1.63;;
53688;SDS011;39583;54.682;30.662;2023-03-19T14:14:55;5.70;;;2.00;;
53688;SDS011;39583;54.682;30.662;2023-03-19T14:17:45;5.63;;;2.03;;
53688;SDS011;39583;54.682;30.662;2023-03-19T14:20:22;3.38;;;2.00;;
53688;SDS011;39583;54.682;30.662;2023-03-19T14:30:59;4.63;;;2.35;;
53688;SDS011;39583;54.682;30.662;2023-03-19T14:33:31;4.85;;;1.92;;
53688;SDS011;39583;54.682;30.662;2023-03-19T14:36:16;3.85;;;1.70;;
53688;SDS011;39583;54.682;30.662;2023-03-19T14:38:49;3.92;;;1.80;;
53688;SDS011;39583;54.682;30.662;2023-03-19T14:41:20;4.13;;;1.85;;
53688;SDS011;39583;54.682;30.662;2023-03-19T14:54:58;5.20;;;2.15;;
53688;SDS011;39583;54.682;30.662;2023-03-19T14:57:27;4.35;;;1.85;;
53688;SDS011;39583;54.682;30.662;2023-03-19T14:59:57;3.40;;;1.83;;
53688;SDS011;39583;54.682;30.662;2023-03-19T15:02:26;3.13;;;1.63;;
53688;SDS011;39583;54.682;30.662;2023-03-19T15:04:58;4.15;;;2.03;;
53688;SDS011;39583;54.682;30.662;2023-03-19T15:07:29;3.83;;;1.85;;
53688;SDS011;39583;54.682;30.662;2023-03-19T15:10:00;3.33;;;1.73;;
53688;SDS011;39583;54.682;30.662;2023-03-19T15:18:25;4.50;;;1.80;;
53688;SDS011;39583;54.682;30.662;2023-03-19T15:20:52;3.35;;;1.40;;
53688;SDS011;39583;54.682;30.662;2023-03-19T15:23:26;3.88;;;1.80;;
53688;SDS011;39583;54.682;30.662;2023-03-19T15:28:30;2.92;;;1.50;;
53688;SDS011;39583;54.682;30.662;2023-03-19T15:31:05;2.45;;;1.40;;
53688;SDS011;39583;54.682;30.662;2023-03-19T15:33:33;2.38;;;1.23;;
53688;SDS011;39583;54.682;30.662;2023-03-19T15:36:08;3.90;;;1.40;;
53688;SDS011;39583;54.682;30.662;2023-03-19T15:38:38;3.58;;;1.30;;
53688;SDS011;39583;54.682;30.662;2023-03-19T15:41:16;4.85;;;1.63;;
53688;SDS011;39583;54.682;30.662;2023-03-19T15:43:43;3.08;;;1.23;;
53688;SDS011;39583;54.682;30.662;2023-03-19T15:46:11;3.25;;;1.17;;
53688;SDS011;39583;54.682;30.662;2023-03-19T15:48:45;2.13;;;1.40;;
53688;SDS011;39583;54.682;30.662;2023-03-19T15:51:18;2.00;;;1.20;;
53688;SDS011;39583;54.682;30.662;2023-03-19T15:53:48;2.00;;;1.20;;
53688;SDS011;39583;54.682;30.662;2023-03-19T15:56:15;4.18;;;1.10;;
53688;SDS011;39583;54.682;30.662;2023-03-19T15:58:43;3.25;;;1.73;;
53688;SDS011;39583;54.682;30.662;2023-03-19T16:01:15;4.72;;;1.35;;
53688;SDS011;39583;54.682;30.662;2023-03-19T16:03:44;1.88;;;1.15;;
53688;SDS011;39583;54.682;30.662;2023-03-19T16:06:20;3.15;;;1.30;;
53688;SDS011;39583;54.682;30.662;2023-03-19T16:08:51;4.97;;;2.22;;
53688;SDS011;39583;54.682;30.662;2023-03-19T16:11:26;5.53;;;1.50;;
53688;SDS011;39583;54.682;30.662;2023-03-19T16:13:54;2.75;;;1.40;;
53688;SDS011;39583;54.682;30.662;2023-03-19T16:16:23;2.50;;;1.40;;
53688;SDS011;39583;54.682;30.662;2023-03-19T16:18:52;2.30;;;1.52;;
53688;SDS011;39583;54.682;30.662;2023-03-19T16:21:34;2.47;;;1.30;;
53688;SDS011;39583;54.682;30.662;2023-03-19T16:24:10;2.45;;;1.30;;
53688;SDS011;39583;54.682;30.662;2023-03-19T16:26:44;2.35;;;1.30;;
53688;SDS011;39583;54.682;30.662;2023-03-19T16:29:27;1.88;;;1.30;;
53688;SDS011;39583;54.682;30.662;2023-03-19T16:34:38;1.55;;;1.23;;
53688;SDS011;39583;54.682;30.662;2023-03-19T16:42:41;2.85;;;1.45;;
53688;SDS011;39583;54.682;30.662;2023-03-19T16:47:40;3.50;;;1.50;;
53688;SDS011;39583;54.682;30.662;2023-03-19T16:50:07;2.38;;;1.60;;
53688;SDS011;39583;54.682;30.662;2023-03-19T16:52:34;4.60;;;1.40;;
53688;SDS011;39583;54.682;30.662;2023-03-19T16:55:02;3.33;;;1.38;;
53688;SDS011;39583;54.682;30.662;2023-03-19T16:57:35;7.03;;;1.40;;
53688;SDS011;39583;54.682;30.662;2023-03-19T17:00:00;2.30;;;1.38;;
53688;SDS011;39583;54.682;30.662;2023-03-19T17:02:26;2.83;;;1.70;;
53688;SDS011;39583;54.682;30.662;2023-03-19T17:04:52;2.90;;;1.35;;
53688;SDS011;39583;54.682;30.662;2023-03-19T17:07:18;1.90;;;1.23;;
53688;SDS011;39583;54.682;30.662;2023-03-19T17:09:45;2.10;;;1.20;;
53688;SDS011;39583;54.682;30.662;2023-03-19T17:12:12;2.13;;;1.30;;
53688;SDS011;39583;54.682;30.662;2023-03-19T17:14:41;2.78;;;1.27;;
53688;SDS011;39583;54.682;30.662;2023-03-19T17:17:14;1.65;;;1.20;;
53688;SDS011;39583;54.682;30.662;2023-03-19T17:19:43;2.13;;;1.02;;
53688;SDS011;39583;54.682;30.662;2023-03-19T17:22:11;3.25;;;1.65;;
53688;SDS011;39583;54.682;30.662;2023-03-19T17:24:39;3.10;;;1.15;;
53688;SDS011;39583;54.682;30.662;2023-03-19T17:27:05;3.78;;;1.40;;
53688;SDS011;39583;54.682;30.662;2023-03-19T17:29:32;5.20;;;1.45;;
53688;SDS011;39583;54.682;30.662;2023-03-19T17:31:58;2.67;;;1.45;;
53688;SDS011;39583;54.682;30.662;2023-03-19T17:34:28;3.30;;;1.30;;
53688;SDS011;39583;54.682;30.662;2023-03-19T17:37:01;2.50;;;1.30;;
53688;SDS011;39583;54.682;30.662;2023-03-19T17:39:28;4.65;;;1.30;;
53688;SDS011;39583;54.682;30.662;2023-03-19T17:41:55;3.30;;;1.48;;
53688;SDS011;39583;54.682;30.662;2023-03-19T17:44:22;2.38;;;1.27;;
53688;SDS011;39583;54.682;30.662;2023-03-19T17:46:49;1.88;;;1.33;;
53688;SDS011;39583;54.682;30.662;2023-03-19T17:49:19;1.70;;;1.08;;
53688;SDS011;39583;54.682;30.662;2023-03-19T17:51:58;4.60;;;1.65;;
53688;SDS011;39583;54.682;30.662;2023-03-19T17:54:24;3.95;;;1.48;;
53688;SDS011;39583;54.682;30.662;2023-03-19T17:56:52;4.07;;;1.88;;
53688;SDS011;39583;54.682;30.662;2023-03-19T17:59:19;3.40;;;1.27;;
53688;SDS011;39583;54.682;30.662;2023-03-19T18:01:47;2.90;;;1.10;;
53688;SDS011;39583;54.682;30.662;2023-03-19T18:04:14;2.03;;;1.30;;
53688;SDS011;39583;54.682;30.662;2023-03-19T18:06:52;3.00;;;1.75;;
53688;SDS011;39583;54.682;30.662;2023-03-19T18:09:22;12.50;;;1.63;;
53688;SDS011;39583;54.682;30.662;2023-03-19T18:11:50;3.08;;;1.58;;
53688;SDS011;39583;54.682;30.662;2023-03-19T18:14:16;2.78;;;1.52;;
53688;SDS011;39583;54.682;30.662;2023-03-19T18:16:42;3.35;;;1.60;;
53688;SDS011;39583;54.682;30.662;2023-03-19T18:19:16;2.22;;;1.48;;
53688;SDS011;39583;54.682;30.662;2023-03-19T18:24:39;1.90;;;1.25;;
53688;SDS011;39583;54.682;30.662;2023-03-19T18:27:05;2.83;;;1.52;;
53688;SDS011;39583;54.682;30.662;2023-03-19T18:29:31;2.50;;;1.55;;
53688;SDS011;39583;54.682;30.662;2023-03-19T18:32:02;2.38;;;1.42;;
